sensor_id;sensor_type;location;lat;lon;timestamp;P1;durP1;ratioP1;P2;durP2;ratioP2
10142;SDS011;5112;54.088;13.446;2023-02-22T00:09:28;12.63;;;3.93;;
10142;SDS011;5112;54.088;13.446;2023-02-22T00:19:31;13.93;;;4.73;;
10142;SDS011;5112;54.088;13.446;2023-02-22T00:29:33;8.50;;;3.63;;
10142;SDS011;5112;54.088;13.446;2023-02-22T00:39:36;14.13;;;4.87;;
10142;SDS011;5112;54.088;13.446;2023-02-22T00:49:38;12.03;;;4.33;;
10142;SDS011;5112;54.088;13.446;2023-02-22T00:59:41;12.73;;;4.00;;
10142;SDS011;5112;54.088;13.446;2023-02-22T01:09:42;11.00;;;4.60;;
10142;SDS011;5112;54.088;13.446;2023-02-22T01:19:45;11.73;;;3.80;;
10142;SDS011;5112;54.088;13.446;2023-02-22T01:29:47;14.70;;;4.83;;
10142;SDS011;5112;54.088;13.446;2023-02-22T01:39:50;12.07;;;4.23;;
10142;SDS011;5112;54.088;13.446;2023-02-22T01:49:52;15.70;;;3.77;;
10142;SDS011;5112;54.088;13.446;2023-02-22T01:59:56;11.30;;;4.10;;
10142;SDS011;5112;54.088;13.446;2023-02-22T02:10:09;14.77;;;4.50;;
10142;SDS011;5112;54.088;13.446;2023-02-22T02:20:16;13.60;;;4.50;;
10142;SDS011;5112;54.088;13.446;2023-02-22T02:30:31;10.10;;;4.17;;
10142;SDS011;5112;54.088;13.446;2023-02-22T02:40:47;15.73;;;4.20;;
10142;SDS011;5112;54.088;13.446;2023-02-22T02:50:55;10.63;;;4.50;;
10142;SDS011;5112;54.088;13.446;2023-02-22T03:01:01;13.37;;;4.33;;
10142;SDS011;5112;54.088;13.446;2023-02-22T03:11:05;12.63;;;4.30;;
10142;SDS011;5112;54.088;13.446;2023-02-22T03:21:16;9.07;;;3.93;;
10142;SDS011;5112;54.088;13.446;2023-02-22T03:31:24;11.17;;;3.83;;
10142;SDS011;5112;54.088;13.446;2023-02-22T03:41:30;18.63;;;5.47;;
10142;SDS011;5112;54.088;13.446;2023-02-22T03:51:37;13.77;;;5.13;;
10142;SDS011;5112;54.088;13.446;2023-02-22T04:01:40;14.80;;;4.27;;
10142;SDS011;5112;54.088;13.446;2023-02-22T04:11:42;6.93;;;3.20;;
10142;SDS011;5112;54.088;13.446;2023-02-22T04:21:45;6.43;;;3.40;;
10142;SDS011;5112;54.088;13.446;2023-02-22T04:31:47;6.43;;;2.83;;
10142;SDS011;5112;54.088;13.446;2023-02-22T04:41:50;5.60;;;2.60;;
10142;SDS011;5112;54.088;13.446;2023-02-22T04:51:52;5.20;;;2.40;;
10142;SDS011;5112;54.088;13.446;2023-02-22T05:01:55;3.23;;;1.90;;
10142;SDS011;5112;54.088;13.446;2023-02-22T05:11:57;3.00;;;2.03;;
10142;SDS011;5112;54.088;13.446;2023-02-22T05:21:59;2.50;;;2.30;;
10142;SDS011;5112;54.088;13.446;2023-02-22T05:32:01;3.53;;;2.40;;
10142;SDS011;5112;54.088;13.446;2023-02-22T05:42:04;3.10;;;2.07;;
10142;SDS011;5112;54.088;13.446;2023-02-22T05:52:06;3.73;;;2.13;;
10142;SDS011;5112;54.088;13.446;2023-02-22T06:02:09;4.67;;;2.67;;
10142;SDS011;5112;54.088;13.446;2023-02-22T06:12:10;6.03;;;3.30;;
10142;SDS011;5112;54.088;13.446;2023-02-22T06:22:16;5.60;;;3.20;;
10142;SDS011;5112;54.088;13.446;2023-02-22T06:32:19;4.57;;;2.70;;
10142;SDS011;5112;54.088;13.446;2023-02-22T06:42:22;3.77;;;2.33;;
10142;SDS011;5112;54.088;13.446;2023-02-22T06:52:24;4.97;;;2.73;;
10142;SDS011;5112;54.088;13.446;2023-02-22T07:02:27;6.77;;;3.23;;
10142;SDS011;5112;54.088;13.446;2023-02-22T07:12:28;6.77;;;3.30;;
10142;SDS011;5112;54.088;13.446;2023-02-22T07:22:31;5.37;;;3.57;;
10142;SDS011;5112;54.088;13.446;2023-02-22T07:32:33;4.67;;;3.27;;
10142;SDS011;5112;54.088;13.446;2023-02-22T07:42:50;6.47;;;2.90;;
10142;SDS011;5112;54.088;13.446;2023-02-22T07:52:53;7.97;;;3.73;;
10142;SDS011;5112;54.088;13.446;2023-02-22T08:02:57;8.53;;;3.60;;
10142;SDS011;5112;54.088;13.446;2023-02-22T08:13:00;4.83;;;3.17;;
10142;SDS011;5112;54.088;13.446;2023-02-22T08:23:04;8.20;;;4.03;;
10142;SDS011;5112;54.088;13.446;2023-02-22T08:33:06;9.27;;;4.40;;
10142;SDS011;5112;54.088;13.446;2023-02-22T08:43:10;15.00;;;8.40;;
10142;SDS011;5112;54.088;13.446;2023-02-22T08:53:14;14.10;;;8.00;;
10142;SDS011;5112;54.088;13.446;2023-02-22T09:03:17;6.10;;;4.93;;
10142;SDS011;5112;54.088;13.446;2023-02-22T09:13:19;6.20;;;4.83;;
10142;SDS011;5112;54.088;13.446;2023-02-22T09:23:22;9.67;;;6.30;;
10142;SDS011;5112;54.088;13.446;2023-02-22T09:33:24;9.80;;;5.30;;
10142;SDS011;5112;54.088;13.446;2023-02-22T09:43:32;10.93;;;5.20;;
10142;SDS011;5112;54.088;13.446;2023-02-22T09:53:40;10.50;;;5.77;;
10142;SDS011;5112;54.088;13.446;2023-02-22T10:03:50;9.77;;;5.70;;
10142;SDS011;5112;54.088;13.446;2023-02-22T10:14:00;11.00;;;6.57;;
10142;SDS011;5112;54.088;13.446;2023-02-22T10:24:14;14.60;;;6.90;;
10142;SDS011;5112;54.088;13.446;2023-02-22T10:34:26;11.17;;;6.90;;
10142;SDS011;5112;54.088;13.446;2023-02-22T10:44:34;14.10;;;7.00;;
10142;SDS011;5112;54.088;13.446;2023-02-22T10:54:38;11.27;;;7.20;;
10142;SDS011;5112;54.088;13.446;2023-02-22T11:04:46;16.77;;;7.40;;
10142;SDS011;5112;54.088;13.446;2023-02-22T11:14:49;13.97;;;7.47;;
10142;SDS011;5112;54.088;13.446;2023-02-22T11:24:53;13.63;;;7.47;;
10142;SDS011;5112;54.088;13.446;2023-02-22T11:34:57;12.60;;;7.33;;
10142;SDS011;5112;54.088;13.446;2023-02-22T11:45:31;16.33;;;7.27;;
10142;SDS011;5112;54.088;13.446;2023-02-22T11:55:35;15.70;;;7.23;;
10142;SDS011;5112;54.088;13.446;2023-02-22T12:05:46;16.67;;;9.50;;
10142;SDS011;5112;54.088;13.446;2023-02-22T12:16:03;18.13;;;9.30;;
10142;SDS011;5112;54.088;13.446;2023-02-22T12:26:15;25.20;;;12.40;;
10142;SDS011;5112;54.088;13.446;2023-02-22T12:36:24;21.37;;;9.90;;
10142;SDS011;5112;54.088;13.446;2023-02-22T12:56:40;20.53;;;10.60;;
10142;SDS011;5112;54.088;13.446;2023-02-22T13:06:49;27.60;;;10.23;;
10142;SDS011;5112;54.088;13.446;2023-02-22T13:17:12;22.97;;;10.60;;
10142;SDS011;5112;54.088;13.446;2023-02-22T13:27:22;19.03;;;10.87;;
10142;SDS011;5112;54.088;13.446;2023-02-22T13:48:01;26.87;;;15.30;;
10142;SDS011;5112;54.088;13.446;2023-02-22T13:58:23;28.20;;;16.27;;
10142;SDS011;5112;54.088;13.446;2023-02-22T14:18:47;33.17;;;17.73;;
10142;SDS011;5112;54.088;13.446;2023-02-22T14:28:52;31.63;;;17.57;;
10142;SDS011;5112;54.088;13.446;2023-02-22T14:38:57;36.03;;;16.30;;
10142;SDS011;5112;54.088;13.446;2023-02-22T14:49:11;34.60;;;16.03;;
10142;SDS011;5112;54.088;13.446;2023-02-22T14:59:19;38.30;;;17.30;;
10142;SDS011;5112;54.088;13.446;2023-02-22T15:09:25;49.47;;;20.80;;
10142;SDS011;5112;54.088;13.446;2023-02-22T15:19:29;56.77;;;23.60;;
10142;SDS011;5112;54.088;13.446;2023-02-22T15:29:36;58.53;;;25.73;;
10142;SDS011;5112;54.088;13.446;2023-02-22T15:39:39;56.27;;;23.97;;
10142;SDS011;5112;54.088;13.446;2023-02-22T15:49:44;44.83;;;21.07;;
10142;SDS011;5112;54.088;13.446;2023-02-22T15:59:47;38.17;;;20.40;;
10142;SDS011;5112;54.088;13.446;2023-02-22T16:09:53;33.63;;;17.43;;
10142;SDS011;5112;54.088;13.446;2023-02-22T16:19:55;34.63;;;15.03;;
10142;SDS011;5112;54.088;13.446;2023-02-22T16:30:01;24.63;;;13.43;;
10142;SDS011;5112;54.088;13.446;2023-02-22T16:40:08;22.10;;;12.73;;
10142;SDS011;5112;54.088;13.446;2023-02-22T16:50:14;25.50;;;12.07;;
10142;SDS011;5112;54.088;13.446;2023-02-22T17:00:18;16.67;;;9.17;;
10142;SDS011;5112;54.088;13.446;2023-02-22T17:10:31;17.58;;;10.27;;
10142;SDS011;5112;54.088;13.446;2023-02-22T17:20:33;17.52;;;10.70;;
10142;SDS011;5112;54.088;13.446;2023-02-22T17:30:36;16.85;;;8.95;;
10142;SDS011;5112;54.088;13.446;2023-02-22T17:40:38;13.40;;;7.87;;
10142;SDS011;5112;54.088;13.446;2023-02-22T17:50:42;11.55;;;7.15;;
10142;SDS011;5112;54.088;13.446;2023-02-22T18:00:46;14.20;;;7.40;;
10142;SDS011;5112;54.088;13.446;2023-02-22T18:10:50;12.67;;;6.27;;
10142;SDS011;5112;54.088;13.446;2023-02-22T18:20:55;12.47;;;6.23;;
10142;SDS011;5112;54.088;13.446;2023-02-22T18:31:04;14.83;;;6.23;;
10142;SDS011;5112;54.088;13.446;2023-02-22T18:41:07;10.30;;;6.43;;
10142;SDS011;5112;54.088;13.446;2023-02-22T18:51:11;11.87;;;7.10;;
10142;SDS011;5112;54.088;13.446;2023-02-22T19:01:16;11.43;;;6.00;;
10142;SDS011;5112;54.088;13.446;2023-02-22T19:11:20;13.40;;;5.83;;
10142;SDS011;5112;54.088;13.446;2023-02-22T19:21:23;16.93;;;6.13;;
10142;SDS011;5112;54.088;13.446;2023-02-22T19:31:28;9.57;;;6.47;;
10142;SDS011;5112;54.088;13.446;2023-02-22T19:41:32;9.47;;;6.33;;
10142;SDS011;5112;54.088;13.446;2023-02-22T19:51:35;12.70;;;7.17;;
10142;SDS011;5112;54.088;13.446;2023-02-22T20:01:37;12.00;;;7.60;;
10142;SDS011;5112;54.088;13.446;2023-02-22T20:11:41;13.10;;;6.60;;
10142;SDS011;5112;54.088;13.446;2023-02-22T20:21:42;15.10;;;6.93;;
10142;SDS011;5112;54.088;13.446;2023-02-22T20:31:45;10.93;;;7.00;;
10142;SDS011;5112;54.088;13.446;2023-02-22T20:41:52;12.07;;;6.87;;
10142;SDS011;5112;54.088;13.446;2023-02-22T20:51:55;13.93;;;8.10;;
10142;SDS011;5112;54.088;13.446;2023-02-22T21:01:58;12.67;;;7.30;;
10142;SDS011;5112;54.088;13.446;2023-02-22T21:12:01;13.17;;;7.23;;
10142;SDS011;5112;54.088;13.446;2023-02-22T21:22:07;13.23;;;7.43;;
10142;SDS011;5112;54.088;13.446;2023-02-22T21:32:10;12.37;;;7.33;;
10142;SDS011;5112;54.088;13.446;2023-02-22T21:42:12;10.23;;;6.87;;
10142;SDS011;5112;54.088;13.446;2023-02-22T21:52:15;12.37;;;7.40;;
10142;SDS011;5112;54.088;13.446;2023-02-22T22:02:17;8.50;;;6.90;;
10142;SDS011;5112;54.088;13.446;2023-02-22T22:12:21;10.43;;;7.57;;
10142;SDS011;5112;54.088;13.446;2023-02-22T22:22:23;15.97;;;7.80;;
10142;SDS011;5112;54.088;13.446;2023-02-22T22:32:28;12.07;;;7.70;;
10142;SDS011;5112;54.088;13.446;2023-02-22T22:42:30;10.47;;;6.37;;
10142;SDS011;5112;54.088;13.446;2023-02-22T22:52:34;12.87;;;7.70;;
10142;SDS011;5112;54.088;13.446;2023-02-22T23:02:36;12.53;;;7.67;;
10142;SDS011;5112;54.088;13.446;2023-02-22T23:12:40;12.17;;;8.57;;
10142;SDS011;5112;54.088;13.446;2023-02-22T23:22:42;10.07;;;7.57;;
10142;SDS011;5112;54.088;13.446;2023-02-22T23:32:47;11.63;;;7.67;;
10142;SDS011;5112;54.088;13.446;2023-02-22T23:42:49;9.37;;;7.07;;
10142;SDS011;5112;54.088;13.446;2023-02-22T23:52:55;11.02;;;7.93;;
